Aviation Digital Data Service (ADDS)

Output produced by METARs form (0343 UTC 23 November 2017)
found at http://www.aviationweather.gov/adds/metars/
 
TAF SABE 222300Z 2300/2324 33015KT CAVOK TX30/2318Z TN18/2309Z 
     BECMG 2312/2314 29020KT PRO40 
     TEMPO 2316/2323 6000 TSRA FEW035CB BKN040 
     BECMG 2318/2320 22020KT SCT030 FEW040TCU BKN100
       
TAF SACO 222300Z 2300/2324 32010KT 9999 SCT030 TX36/2318Z TN19/2310Z 
     BECMG 2306/2309 29015G25KT 9999 BKN030 
     BECMG 2315/2318 34015KT
       
TAF SAAR 222300Z 2300/2324 36015KT CAVOK TX34/2318Z TN18/2309Z 
     BECMG 2313/2315 31020G30KT 
     BECMG 2318/2320 23015KT BKN040 BKN100 
     TEMPO 2320/2324 6000 SHRA FEW035TCU
       
TAF SABE 222300Z 2300/2324 33015KT CAVOK TX30/2318Z TN18/2309Z 
     BECMG 2312/2314 29020KT PRO40 
     TEMPO 2316/2323 6000 TSRA FEW035CB BKN040 
     BECMG 2318/2320 22020KT SCT030 FEW040TCU BKN100
       
TAF SACO 222300Z 2300/2324 32010KT 9999 SCT030 TX36/2318Z TN19/2310Z 
     BECMG 2306/2309 29015G25KT 9999 BKN030 
     BECMG 2315/2318 34015KT
       
TAF SADF 222300Z 2300/2324 32015KT CAVOK TX30/2318Z TN16/2309Z 
     BECMG 2312/2314 29020KT PRO40 
     TEMPO 2316/2323 6000 TSRA FEW035CB BKN040 
     BECMG 2318/2320 22020KT SCT030 FEW040TCU BKN100
       
TAF SAEZ 222300Z 2300/2324 34010KT 9999 SCT030 TX31/2318Z TN15/2308Z 
     BECMG 2305/2307 30005KT 
     BECMG 2311/2313 29020KT PRO40 
     TEMPO 2316/2323 6000 TSRA FEW035CB BKN040 
     BECMG 2318/2320 22020KT SCT030 FEW040TCU BKN100
       
TAF SAME 222300Z 2300/2324 14005KT CAVOK TX33/2320Z TN15/2310Z
       
TAF SANR 222300Z 2300/2324 05015KT 9999 SCT030 TX21/2319Z TN14/2311Z 
     BECMG 2312/2315 02015KT 9999 BKN025
       
TAF SANT 222300Z 2300/2324 05010KT 9999 SCT030 TX33/2319Z TN15/2311Z 
     BECMG 2302/2305 36005KT 9999 SCT020 
     BECMG 2312/2315 11005KT 9999 NSC 
     BECMG 2315/2318 07010KT 9999 SCT030 FEW040TCU
       
TAF SARE 222300Z 2300/2324 11005KT CAVOK TX30/2318Z TN14/2309Z 
     BECMG 2308/2310 05010KT
       
TAF SARF 222300Z 2300/2324 18005KT CAVOK TX30/2318Z TN14/2309Z 
     BECMG 2308/2310 05010KT
       
TAF SARI 222300Z 2300/2324 18050KT CAVOK TX28/2318Z TN13/2309Z 
     BECMG 2309/2310 02010KT
       
TAF SARP 222300Z 2300/2324 16005KT CAVOK TX30/2318Z TN13/2309Z 
     BECMG 2308/2310 05010KT
       
TAF SASA 222300Z 2300/2324 VRB03KT 9999 SCT030 FEW040TCU TX34/2319Z TN15/2310Z 
     BECMG 2303/2306 23005KT 9999 BKN030 
     PROB40 
     TEMPO 2308/2311 VRB03KT 5000 BR 
     BECMG 2312/2315 05005KT 9999 SCT030 
     BECMG 2315/2318 05015KT 9999 SCT030 FEW040TCBU
       
TAF SASJ 222300Z 2300/2324 32010KT 9999 SCT030 FEW040TCU TX34/2319Z TN15/2310Z 
     BECMG 2303/2306 23005KT 9999 BKN030 
     PROB40 
     TEMPO 2308/2311 VRB03KT 5000 BR 
     BECMG 2312/2315 05005KT 9999 SCT030 
     BECMG 2315/2318 05015KT 9999 SCT030 FEW040TCBU
       
TAF SAVC 222300Z 2300/2324 05015KT CAVOK TX20/2319Z TN06/2312Z 
     BECMG 2303/2305 20025G40KT SHRA BKN025 OVC050 
     BECMG 2310/2312 23020G35KT NSW SCT030 BKN090 
     BECMG 2316/2319 23015KT FEW030 SCT090
       
TAF SAWE 222300Z 2300/2324 25020G30KT 9999 SCT016 BKN030 BKN060 TX13/2319Z TN02/2312Z 
     BECMG 2304/2307 SCT015 BKN060 
     BECMG 2312/2314 25030G40KT -RA BKN015 BKN050
       
TAF SAWG 222300Z 2300/2324 25025G38KT 9999 FEW035 SCT080 TX16/2319Z TN03/2312Z 
     BECMG 2305/2307 23020G30KT SCT030 SCT090 
     BECMG 2314/2316 25025G40KT BKN025 OVC090
       
TAF SAWH 222300Z 2300/2324 25020G35KT 9999 DZ FEW020 BKN035 OVC050 TX10/2319Z TN02/2312Z 
     BECMG 2308/2310 9999 -RA BKN020 BKN060
       
TAF SAZM 222300Z 2300/2324 25015KT 9999 SCT040 BKN100 TX20/2318Z TN10/2310Z 
     TEMPO 2300/2303 5000 -TSRA SCT020 FEW045CB BKN060 
     BECMG 2307/2309 VRB03KT 
     BECMG 2317/2319 23020G30KT FEW040TCU BKN100 
     TEMPO 2320/2323 7000 SHRA
       
TAF SAZN 222300Z 2300/2324 24015G25KT CAVOK TX25/2320Z TN11/2309Z 
     BECMG 2313/2315 20010KT 
       
TAF SAZS 222300Z 2300/2324 29020KT CAVOK TX18/2319Z TN05/2309Z 
     BECMG 2301/2303 27010KT 9999 SCT030 
     BECMG 2313/2315 25020KT 
       
TAF SARI 222300Z 2300/2324 18050KT CAVOK TX28/2318Z TN13/2309Z 
     BECMG 2309/2310 02010KT
       
TAF SAVC 222300Z 2300/2324 05015KT CAVOK TX20/2319Z TN06/2312Z 
     BECMG 2303/2305 20025G40KT SHRA BKN025 OVC050 
     BECMG 2310/2312 23020G35KT NSW SCT030 BKN090 
     BECMG 2316/2319 23015KT FEW030 SCT090
       
TAF SAME 222300Z 2300/2324 14005KT CAVOK TX33/2320Z TN15/2310Z
       
TAF SARF 222300Z 2300/2324 18005KT CAVOK TX30/2318Z TN14/2309Z 
     BECMG 2308/2310 05010KT
       
TAF SASJ 222300Z 2300/2324 32010KT 9999 SCT030 FEW040TCU TX34/2319Z TN15/2310Z 
     BECMG 2303/2306 23005KT 9999 BKN030 
     PROB40 
     TEMPO 2308/2311 VRB03KT 5000 BR 
     BECMG 2312/2315 05005KT 9999 SCT030 
     BECMG 2315/2318 05015KT 9999 SCT030 FEW040TCBU
       
TAF SASA 222300Z 2300/2324 VRB03KT 9999 SCT030 FEW040TCU TX34/2319Z TN15/2310Z 
     BECMG 2303/2306 23005KT 9999 BKN030 
     PROB40 
     TEMPO 2308/2311 VRB03KT 5000 BR 
     BECMG 2312/2315 05005KT 9999 SCT030 
     BECMG 2315/2318 05015KT 9999 SCT030 FEW040TCBU
       
TAF SAZM 222300Z 2300/2324 25015KT 9999 SCT040 BKN100 TX20/2318Z TN10/2310Z 
     TEMPO 2300/2303 5000 -TSRA SCT020 FEW045CB BKN060 
     BECMG 2307/2309 VRB03KT 
     BECMG 2317/2319 23020G30KT FEW040TCU BKN100 
     TEMPO 2320/2323 7000 SHRA
       
TAF SAEZ 222300Z 2300/2324 34010KT 9999 SCT030 TX31/2318Z TN15/2308Z 
     BECMG 2305/2307 30005KT 
     BECMG 2311/2313 29020KT PRO40 
     TEMPO 2316/2323 6000 TSRA FEW035CB BKN040 
     BECMG 2318/2320 22020KT SCT030 FEW040TCU BKN100
       
TAF SARP 222300Z 2300/2324 16005KT CAVOK TX30/2318Z TN13/2309Z 
     BECMG 2308/2310 05010KT
       
TAF SAZN 222300Z 2300/2324 24015G25KT CAVOK TX25/2320Z TN11/2309Z 
     BECMG 2313/2315 20010KT 
       
TAF SARE 222300Z 2300/2324 11005KT CAVOK TX30/2318Z TN14/2309Z 
     BECMG 2308/2310 05010KT
       
TAF SAWG 222300Z 2300/2324 25025G38KT 9999 FEW035 SCT080 TX16/2319Z TN03/2312Z 
     BECMG 2305/2307 23020G30KT SCT030 SCT090 
     BECMG 2314/2316 25025G40KT BKN025 OVC090
       
TAF SAWE 222300Z 2300/2324 25020G30KT 9999 SCT016 BKN030 BKN060 TX13/2319Z TN02/2312Z 
     BECMG 2304/2307 SCT015 BKN060 
     BECMG 2312/2314 25030G40KT -RA BKN015 BKN050
       
TAF SAAR 222300Z 2300/2324 36015KT CAVOK TX34/2318Z TN18/2309Z 
     BECMG 2313/2315 31020G30KT 
     BECMG 2318/2320 23015KT BKN040 BKN100 
     TEMPO 2320/2324 6000 SHRA FEW035TCU
       
TAF SAAR 222300Z 2300/2324 36015KT CAVOK TX34/2318Z TN18/2309Z 
     BECMG 2313/2315 31020G30KT 
     BECMG 2318/2320 23015KT BKN040 BKN100 
     TEMPO 2320/2324 6000 SHRA FEW035TCU
       
TAF SABE 222300Z 2300/2324 33015KT CAVOK TX30/2318Z TN18/2309Z 
     BECMG 2312/2314 29020KT PRO40 
     TEMPO 2316/2323 6000 TSRA FEW035CB BKN040 
     BECMG 2318/2320 22020KT SCT030 FEW040TCU BKN100
       
TAF SACO 222300Z 2300/2324 32010KT 9999 SCT030 TX36/2318Z TN19/2310Z 
     BECMG 2306/2309 29015G25KT 9999 BKN030 
     BECMG 2315/2318 34015KT
       
TAF SADF 222300Z 2300/2324 32015KT CAVOK TX30/2318Z TN16/2309Z 
     BECMG 2312/2314 29020KT PRO40 
     TEMPO 2316/2323 6000 TSRA FEW035CB BKN040 
     BECMG 2318/2320 22020KT SCT030 FEW040TCU BKN100
       
TAF SAEZ 222300Z 2300/2324 34010KT 9999 SCT030 TX31/2318Z TN15/2308Z 
     BECMG 2305/2307 30005KT 
     BECMG 2311/2313 29020KT PRO40 
     TEMPO 2316/2323 6000 TSRA FEW035CB BKN040 
     BECMG 2318/2320 22020KT SCT030 FEW040TCU BKN100
       
TAF SAME 222300Z 2300/2324 14005KT CAVOK TX33/2320Z TN15/2310Z
       
TAF SANR 222300Z 2300/2324 05015KT 9999 SCT030 TX21/2319Z TN14/2311Z 
     BECMG 2312/2315 02015KT 9999 BKN025
       
TAF SANT 222300Z 2300/2324 05010KT 9999 SCT030 TX33/2319Z TN15/2311Z 
     BECMG 2302/2305 36005KT 9999 SCT020 
     BECMG 2312/2315 11005KT 9999 NSC 
     BECMG 2315/2318 07010KT 9999 SCT030 FEW040TCU
       
TAF SARE 222300Z 2300/2324 11005KT CAVOK TX30/2318Z TN14/2309Z 
     BECMG 2308/2310 05010KT
       
TAF SARF 222300Z 2300/2324 18005KT CAVOK TX30/2318Z TN14/2309Z 
     BECMG 2308/2310 05010KT
       
TAF SARI 222300Z 2300/2324 18050KT CAVOK TX28/2318Z TN13/2309Z 
     BECMG 2309/2310 02010KT
       
TAF SARP 222300Z 2300/2324 16005KT CAVOK TX30/2318Z TN13/2309Z 
     BECMG 2308/2310 05010KT
       
TAF SASA 222300Z 2300/2324 VRB03KT 9999 SCT030 FEW040TCU TX34/2319Z TN15/2310Z 
     BECMG 2303/2306 23005KT 9999 BKN030 
     PROB40 
     TEMPO 2308/2311 VRB03KT 5000 BR 
     BECMG 2312/2315 05005KT 9999 SCT030 
     BECMG 2315/2318 05015KT 9999 SCT030 FEW040TCBU
       
TAF SASJ 222300Z 2300/2324 32010KT 9999 SCT030 FEW040TCU TX34/2319Z TN15/2310Z 
     BECMG 2303/2306 23005KT 9999 BKN030 
     PROB40 
     TEMPO 2308/2311 VRB03KT 5000 BR 
     BECMG 2312/2315 05005KT 9999 SCT030 
     BECMG 2315/2318 05015KT 9999 SCT030 FEW040TCBU
       
TAF SAVC 222300Z 2300/2324 05015KT CAVOK TX20/2319Z TN06/2312Z 
     BECMG 2303/2305 20025G40KT SHRA BKN025 OVC050 
     BECMG 2310/2312 23020G35KT NSW SCT030 BKN090 
     BECMG 2316/2319 23015KT FEW030 SCT090
       
TAF SAWE 222300Z 2300/2324 25020G30KT 9999 SCT016 BKN030 BKN060 TX13/2319Z TN02/2312Z 
     BECMG 2304/2307 SCT015 BKN060 
     BECMG 2312/2314 25030G40KT -RA BKN015 BKN050
       
TAF SAWG 222300Z 2300/2324 25025G38KT 9999 FEW035 SCT080 TX16/2319Z TN03/2312Z 
     BECMG 2305/2307 23020G30KT SCT030 SCT090 
     BECMG 2314/2316 25025G40KT BKN025 OVC090
       
TAF SAWH 222300Z 2300/2324 25020G35KT 9999 DZ FEW020 BKN035 OVC050 TX10/2319Z TN02/2312Z 
     BECMG 2308/2310 9999 -RA BKN020 BKN060
       
TAF SAZM 222300Z 2300/2324 25015KT 9999 SCT040 BKN100 TX20/2318Z TN10/2310Z 
     TEMPO 2300/2303 5000 -TSRA SCT020 FEW045CB BKN060 
     BECMG 2307/2309 VRB03KT 
     BECMG 2317/2319 23020G30KT FEW040TCU BKN100 
     TEMPO 2320/2323 7000 SHRA
       
TAF SAZN 222300Z 2300/2324 24015G25KT CAVOK TX25/2320Z TN11/2309Z 
     BECMG 2313/2315 20010KT 
       
TAF SAZS 222300Z 2300/2324 29020KT CAVOK TX18/2319Z TN05/2309Z 
     BECMG 2301/2303 27010KT 9999 SCT030 
     BECMG 2313/2315 25020KT 
       
TAF SASA 222300Z 2300/2324 VRB03KT 9999 SCT030 FEW040TCU TX34/2319Z TN15/2310Z 
     BECMG 2303/2306 23005KT 9999 BKN030 
     PROB40 
     TEMPO 2308/2311 VRB03KT 5000 BR 
     BECMG 2312/2315 05005KT 9999 SCT030 
     BECMG 2315/2318 05015KT 9999 SCT030 FEW040TCBU
       
TAF SAZS 222300Z 2300/2324 29020KT CAVOK TX18/2319Z TN05/2309Z 
     BECMG 2301/2303 27010KT 9999 SCT030 
     BECMG 2313/2315 25020KT 
       
TAF SADF 222300Z 2300/2324 32015KT CAVOK TX30/2318Z TN16/2309Z 
     BECMG 2312/2314 29020KT PRO40 
     TEMPO 2316/2323 6000 TSRA FEW035CB BKN040 
     BECMG 2318/2320 22020KT SCT030 FEW040TCU BKN100
       
TAF SAAR 222300Z 2300/2324 36015KT CAVOK TX34/2318Z TN18/2309Z 
     BECMG 2313/2315 31020G30KT 
     BECMG 2318/2320 23015KT BKN040 BKN100 
     TEMPO 2320/2324 6000 SHRA FEW035TCU
       
TAF SABE 222300Z 2300/2324 33015KT CAVOK TX30/2318Z TN18/2309Z 
     BECMG 2312/2314 29020KT PRO40 
     TEMPO 2316/2323 6000 TSRA FEW035CB BKN040 
     BECMG 2318/2320 22020KT SCT030 FEW040TCU BKN100
       
TAF SACO 222300Z 2300/2324 32010KT 9999 SCT030 TX36/2318Z TN19/2310Z 
     BECMG 2306/2309 29015G25KT 9999 BKN030 
     BECMG 2315/2318 34015KT
       
TAF SADF 222300Z 2300/2324 32015KT CAVOK TX30/2318Z TN16/2309Z 
     BECMG 2312/2314 29020KT PRO40 
     TEMPO 2316/2323 6000 TSRA FEW035CB BKN040 
     BECMG 2318/2320 22020KT SCT030 FEW040TCU BKN100
       
TAF SAEZ 222300Z 2300/2324 34010KT 9999 SCT030 TX31/2318Z TN15/2308Z 
     BECMG 2305/2307 30005KT 
     BECMG 2311/2313 29020KT PRO40 
     TEMPO 2316/2323 6000 TSRA FEW035CB BKN040 
     BECMG 2318/2320 22020KT SCT030 FEW040TCU BKN100
       
TAF SAME 222300Z 2300/2324 14005KT CAVOK TX33/2320Z TN15/2310Z
       
TAF SANR 222300Z 2300/2324 05015KT 9999 SCT030 TX21/2319Z TN14/2311Z 
     BECMG 2312/2315 02015KT 9999 BKN025
       
TAF SANT 222300Z 2300/2324 05010KT 9999 SCT030 TX33/2319Z TN15/2311Z 
     BECMG 2302/2305 36005KT 9999 SCT020 
     BECMG 2312/2315 11005KT 9999 NSC 
     BECMG 2315/2318 07010KT 9999 SCT030 FEW040TCU
       
TAF SARE 222300Z 2300/2324 11005KT CAVOK TX30/2318Z TN14/2309Z 
     BECMG 2308/2310 05010KT
       
TAF SARF 222300Z 2300/2324 18005KT CAVOK TX30/2318Z TN14/2309Z 
     BECMG 2308/2310 05010KT
       
TAF SARI 222300Z 2300/2324 18050KT CAVOK TX28/2318Z TN13/2309Z 
     BECMG 2309/2310 02010KT
       
TAF SARP 222300Z 2300/2324 16005KT CAVOK TX30/2318Z TN13/2309Z 
     BECMG 2308/2310 05010KT
       
TAF SASA 222300Z 2300/2324 VRB03KT 9999 SCT030 FEW040TCU TX34/2319Z TN15/2310Z 
     BECMG 2303/2306 23005KT 9999 BKN030 
     PROB40 
     TEMPO 2308/2311 VRB03KT 5000 BR 
     BECMG 2312/2315 05005KT 9999 SCT030 
     BECMG 2315/2318 05015KT 9999 SCT030 FEW040TCBU
       
TAF SASJ 222300Z 2300/2324 32010KT 9999 SCT030 FEW040TCU TX34/2319Z TN15/2310Z 
     BECMG 2303/2306 23005KT 9999 BKN030 
     PROB40 
     TEMPO 2308/2311 VRB03KT 5000 BR 
     BECMG 2312/2315 05005KT 9999 SCT030 
     BECMG 2315/2318 05015KT 9999 SCT030 FEW040TCBU
       
TAF SAVC 222300Z 2300/2324 05015KT CAVOK TX20/2319Z TN06/2312Z 
     BECMG 2303/2305 20025G40KT SHRA BKN025 OVC050 
     BECMG 2310/2312 23020G35KT NSW SCT030 BKN090 
     BECMG 2316/2319 23015KT FEW030 SCT090
       
TAF SAWE 222300Z 2300/2324 25020G30KT 9999 SCT016 BKN030 BKN060 TX13/2319Z TN02/2312Z 
     BECMG 2304/2307 SCT015 BKN060 
     BECMG 2312/2314 25030G40KT -RA BKN015 BKN050
       
TAF SAWG 222300Z 2300/2324 25025G38KT 9999 FEW035 SCT080 TX16/2319Z TN03/2312Z 
     BECMG 2305/2307 23020G30KT SCT030 SCT090 
     BECMG 2314/2316 25025G40KT BKN025 OVC090
       
TAF SAWH 222300Z 2300/2324 25020G35KT 9999 DZ FEW020 BKN035 OVC050 TX10/2319Z TN02/2312Z 
     BECMG 2308/2310 9999 -RA BKN020 BKN060
       
TAF SAZM 222300Z 2300/2324 25015KT 9999 SCT040 BKN100 TX20/2318Z TN10/2310Z 
     TEMPO 2300/2303 5000 -TSRA SCT020 FEW045CB BKN060 
     BECMG 2307/2309 VRB03KT 
     BECMG 2317/2319 23020G30KT FEW040TCU BKN100 
     TEMPO 2320/2323 7000 SHRA
       
TAF SAZN 222300Z 2300/2324 24015G25KT CAVOK TX25/2320Z TN11/2309Z 
     BECMG 2313/2315 20010KT 
       
TAF SAZS 222300Z 2300/2324 29020KT CAVOK TX18/2319Z TN05/2309Z 
     BECMG 2301/2303 27010KT 9999 SCT030 
     BECMG 2313/2315 25020KT 
       
TAF SANT 222300Z 2300/2324 05010KT 9999 SCT030 TX33/2319Z TN15/2311Z 
     BECMG 2302/2305 36005KT 9999 SCT020 
     BECMG 2312/2315 11005KT 9999 NSC 
     BECMG 2315/2318 07010KT 9999 SCT030 FEW040TCU
       
TAF SAWH 222300Z 2300/2324 25020G35KT 9999 DZ FEW020 BKN035 OVC050 TX10/2319Z TN02/2312Z 
     BECMG 2308/2310 9999 -RA BKN020 BKN060